Latest Coastal Weather Observations for McCluer Island

IDD60701

Issued at 7:51 pm CST Saturday 22 February 2020 (issued every 10 minutes, with the page automatically refreshed every 10 minutes)

About coastal observations | Map of coastal stations | Coastal observations for NT | Marine services | Other Formats
Station Details ID: 014274 Name: MCCLUER ISLAND Lat: -11.05 Lon: 132.98 Height: 1.4 m
Data from the previous 72 hours. | See also: Recent months at McCluer Island
Date/Time
CST
Wind Sea
Height
m
Swell Vis
km
Cloud Weather Temp
°C
Press
hPa
Rain since
9am
mm
Dir  Spd
kts
Gust
kts
Height
m
Period
s
Dir
22/07:30pm WNW 17 19 - - - - - - - 28.6 1006.1 16.6
22/07:00pm WNW 16 19 - - - - - - - 28.4 1005.3 16.6
22/06:30pm WNW 16 18 - - - - - - - 28.2 1005.3 16.6
22/06:00pm WNW 18 19 - - - - - - - 28.0 1005.0 16.6
22/05:30pm WNW 18 21 - - - - - - - 28.0 1004.9 16.6
22/05:00pm WNW 17 20 - - - - - - - 28.0 1004.9 16.6
22/04:30pm WNW 14 16 - - - - - - - 28.0 1005.1 16.6
22/04:00pm WNW 12 14 - - - - - - - 27.5 1005.4 16.6
22/03:30pm WNW 15 17 - - - - - - - 27.0 1005.7 16.6
22/03:00pm W 15 17 - - - - - - - 26.2 1005.9 16.6
22/02:30pm WNW 14 17 - - - - - - - 26.3 1006.3 16.6
22/02:00pm WNW 16 19 - - - - - - - 25.9 1007.0 16.2
22/01:30pm W 10 14 - - - - - - - 25.6 1007.8 16.0
22/01:00pm SW 11 14 - - - - - - - 25.4 1008.5 15.8
22/12:30pm SW 10 13 - - - - - - - 25.0 1008.7 15.2
22/12:00pm S 16 21 - - - - - - - 24.2 1009.3 14.2
22/11:30am S 16 20 - - - - - - - 24.5 1009.7 12.0
22/11:11am SE 17 27 - - - - - - - 24.1 1010.1 9.4
22/11:00am S 20 31 - - - - - - - 24.9 1009.9 7.2
22/10:47am SSE 19 29 - - - - - - - 24.6 1009.7 4.6
22/10:30am S 22 33 - - - - - - - 24.8 1009.7 0.2
22/10:25am SSW 22 33 - - - - - - - 26.6 1009.6 0.0
22/10:00am WSW 12 15 - - - - - - - 28.8 1008.7 0.0
22/09:30am WSW 14 17 - - - - - - - 28.5 1008.7 0.0
22/09:00am W 16 21 - - - - - - - 28.6 1008.3 4.0
22/08:30am W 14 17 - - - - - - - 28.4 1008.2 4.0
22/08:00am W 16 19 - - - - - - - 28.5 1007.7 4.0
22/07:30am WSW 15 20 - - - - - - - 28.3 1007.3 4.0
22/07:00am WSW 16 20 - - - - - - - 28.2 1007.2 4.0
22/06:30am WSW 15 18 - - - - - - - 28.4 1007.0 4.0
22/06:00am SW 14 17 - - - - - - - 28.2 1007.0 4.0
22/05:30am SW 15 18 - - - - - - - 27.9 1006.6 4.0
22/05:00am SW 12 17 - - - - - - - 27.8 1006.2 4.0
22/04:30am SW 12 17 - - - - - - - 27.5 1006.0 4.0
22/04:00am WSW 15 17 - - - - - - - 27.2 1005.9 4.0
22/03:30am WSW 15 18 - - - - - - - 27.1 1006.1 4.0
22/03:00am WSW 13 16 - - - - - - - 27.2 1006.2 4.0
22/02:30am W 12 15 - - - - - - - 27.6 1007.1 4.0
22/02:00am W 12 15 - - - - - - - 27.4 1007.4 4.0
22/01:30am WSW 11 14 - - - - - - - 27.7 1008.0 4.0
22/01:00am W 12 15 - - - - - - - 27.7 1008.2 4.0
22/12:30am WSW 10 12 - - - - - - - 28.0 1008.2 4.0
22/12:00am WSW 9 11 - - - - - - - 27.8 1008.0 4.0
 
Date/Time
CST
Wind Sea
Height
m
Swell Vis
km
Cloud Weather Temp
°C
Press
hPa
Rain since
9am
mm
Dir  Spd
kts
Gust
kts
Height
m
Period
s
Dir
21/11:30pm SW 12 15 - - - - - - - 27.7 1008.3 4.0
21/11:00pm SSW 16 19 - - - - - - - 27.5 1008.8 4.0
21/10:30pm SW 9 11 - - - - - - - 26.7 1008.5 4.0
21/10:00pm SSW 11 13 - - - - - - - 26.7 1008.1 4.0
21/09:30pm S 10 14 - - - - - - - 27.0 1008.1 4.0
21/09:00pm S 11 15 - - - - - - - 26.7 1008.0 4.0
21/08:30pm SSE 13 19 - - - - - - - 26.5 1008.4 4.0
21/08:00pm SSE 15 20 - - - - - - - 27.0 1008.4 4.0
21/07:30pm SSE 17 25 - - - - - - - 26.7 1007.6 4.0
21/07:00pm S 13 25 - - - - - - - 26.8 1007.3 1.8
21/06:30pm S 15 20 - - - - - - - 29.1 1006.7 0.0
21/06:00pm W 10 13 - - - - - - - 28.6 1006.2 0.0
21/05:30pm W 8 11 - - - - - - - 29.1 1005.8 0.0
21/05:00pm W 11 13 - - - - - - - 29.2 1005.5 0.0
21/04:30pm W 10 12 - - - - - - - 29.4 1005.7 0.0
21/04:00pm W 12 13 - - - - - - - 29.9 1005.8 0.0
21/03:30pm W 14 16 - - - - - - - 29.5 1005.9 0.0
21/03:00pm W 9 12 - - - - - - - 30.1 1006.1 0.0
21/02:30pm WSW 12 14 - - - - - - - 29.1 1006.6 0.0
21/02:00pm WSW 11 13 - - - - - - - 29.8 1006.9 0.0
21/01:30pm WSW 13 15 - - - - - - - 29.3 1007.2 0.0
21/01:00pm WSW 12 15 - - - - - - - 29.0 1007.6 0.0
21/12:30pm W 12 15 - - - - - - - 29.0 1008.1 0.0
21/12:00pm WSW 12 15 - - - - - - - 28.6 1008.3 0.0
21/11:30am WSW 12 16 - - - - - - - 28.9 1008.6 0.0
21/11:00am WSW 13 16 - - - - - - - 28.8 1008.9 0.0
21/10:30am WSW 14 17 - - - - - - - 29.2 1008.9 0.0
21/10:00am SW 13 16 - - - - - - - 28.9 1008.9 0.0
21/09:30am SW 12 15 - - - - - - - 28.8 1008.9 0.0
21/09:00am SW 11 15 - - - - - - - 28.6 1008.4 0.0
21/08:30am SSW 11 14 - - - - - - - 28.0 1007.9 0.0
21/08:00am SSW 10 13 - - - - - - - 27.6 1007.1 0.0
21/07:30am SW 13 16 - - - - - - - 27.8 1006.6 0.0
21/07:00am SSW 13 16 - - - - - - - 27.9 1005.8 0.0
21/06:30am SW 11 13 - - - - - - - 27.8 1005.2 0.0
21/06:00am WSW 11 14 - - - - - - - 27.9 1004.9 0.0
21/05:30am WSW 13 16 - - - - - - - 27.9 1005.2 0.0
21/05:00am WSW 15 17 - - - - - - - 27.8 1005.6 0.0
21/04:30am WSW 17 20 - - - - - - - 27.4 1005.8 0.0
21/04:00am WSW 16 20 - - - - - - - 26.9 1005.9 0.0
21/03:30am WSW 18 21 - - - - - - - 27.0 1006.0 0.0
21/03:00am WSW 17 20 - - - - - - - 27.0 1006.5 0.0
21/02:30am WSW 17 21 - - - - - - - 26.7 1006.8 0.0
21/02:00am SW 18 21 - - - - - - - 26.9 1007.1 0.0
21/01:30am WSW 16 20 - - - - - - - 26.6 1007.6 0.0
21/01:00am SW 15 17 - - - - - - - 26.7 1007.9 0.0
21/12:30am SW 14 18 - - - - - - - 26.4 1008.3 0.0
21/12:00am SW 13 16 - - - - - - - 27.0 1008.6 0.0
 
Date/Time
CST
Wind Sea
Height
m
Swell Vis
km
Cloud Weather Temp
°C
Press
hPa
Rain since
9am
mm
Dir  Spd
kts
Gust
kts
Height
m
Period
s
Dir
20/11:30pm WSW 15 20 - - - - - - - 27.9 1008.6 0.0
20/11:00pm W 18 25 - - - - - - - 28.0 1008.4 0.0
20/10:30pm W 19 22 - - - - - - - 29.0 1008.7 0.0
20/10:00pm W 18 20 - - - - - - - 28.8 1008.3 0.0
20/09:30pm W 17 19 - - - - - - - 28.9 1008.3 0.0
20/09:00pm WNW 18 21 - - - - - - - 28.8 1008.0 0.0
20/08:30pm WNW 17 20 - - - - - - - 28.8 1007.7 0.0
20/08:00pm WNW 19 21 - - - - - - - 28.8 1007.4 0.0
20/07:30pm WNW 18 20 - - - - - - - 28.9 1007.2 0.0
20/07:00pm WNW 17 20 - - - - - - - 28.9 1006.4 0.0
20/06:30pm WNW 16 19 - - - - - - - 29.1 1005.8 0.0
20/06:00pm WNW 15 17 - - - - - - - 29.4 1005.2 0.0
20/05:30pm WNW 16 19 - - - - - - - 29.4 1004.8 0.0
20/05:00pm WNW 16 18 - - - - - - - 29.4 1004.6 0.0
20/04:30pm WNW 15 17 - - - - - - - 29.5 1004.8 0.0
20/04:00pm WNW 14 17 - - - - - - - 29.1 1005.2 0.0
20/03:30pm WNW 12 14 - - - - - - - 29.0 1005.8 0.0
20/03:00pm NW 13 15 - - - - - - - 29.0 1006.2 0.0
20/02:30pm NW 12 15 - - - - - - - 28.6 1006.9 0.0
20/02:00pm WNW 9 11 - - - - - - - 29.0 1007.0 0.0
20/01:30pm WNW 8 9 - - - - - - - 29.9 1006.9 0.0
20/01:00pm W 8 9 - - - - - - - 29.7 1007.1 0.0
20/12:30pm W 7 9 - - - - - - - 29.7 1007.5 0.0
20/12:00pm WNW 8 9 - - - - - - - 29.8 1007.7 0.0
20/11:30am WNW 10 11 - - - - - - - 30.3 1007.7 0.0
20/11:00am W 9 11 - - - - - - - 29.6 1007.8 0.0
20/10:30am W 7 10 - - - - - - - 29.4 1007.7 0.0
20/10:00am W 7 9 - - - - - - - 29.5 1007.8 0.0
20/09:30am WSW 10 12 - - - - - - - 29.0 1007.9 0.0
20/09:00am WSW 10 11 - - - - - - - 28.6 1007.9 13.0
20/08:30am WSW 8 11 - - - - - - - 28.4 1007.7 13.0
20/08:00am WSW 10 12 - - - - - - - 28.1 1007.2 13.0
20/07:30am SW 14 17 - - - - - - - 28.1 1006.4 13.0
20/07:00am WSW 13 16 - - - - - - - 27.9 1005.9 13.0
20/06:30am WSW 15 18 - - - - - - - 27.9 1005.6 13.0
20/06:00am WSW 15 18 - - - - - - - 27.8 1005.2 13.0
20/05:30am WSW 16 19 - - - - - - - 27.2 1005.4 13.0
20/05:00am WSW 15 19 - - - - - - - 27.1 1005.4 13.0
20/04:30am SW 15 19 - - - - - - - 27.7 1005.2 13.0
20/04:00am WSW 10 12 - - - - - - - 27.1 1004.9 13.0
20/03:30am SSW 8 10 - - - - - - - 26.7 1004.7 13.0
20/03:00am SSW 12 15 - - - - - - - 26.5 1004.6 13.0
20/02:30am SSE 10 14 - - - - - - - 26.0 1004.3 13.0
20/02:00am S 10 12 - - - - - - - 25.3 1004.9 13.0
20/01:30am E 6 13 - - - - - - - 25.0 1006.6 12.8
20/01:00am SSE 9 14 - - - - - - - 24.5 1007.9 6.4
20/12:30am SSE 20 26 - - - - - - - 24.5 1007.5 6.0
20/12:29am SSE 20 26 - - - - - - - 24.5 1007.5 5.6
20/12:00am S 18 23 - - - - - - - 27.2 1007.9 0.0
 
Date/Time
CST
Wind Sea
Height
m
Swell Vis
km
Cloud Weather Temp
°C
Press
hPa
Rain since
9am
mm
Dir  Spd
kts
Gust
kts
Height
m
Period
s
Dir
19/11:30pm W 16 18 - - - - - - - 29.6 1007.7 0.0
19/11:00pm W 16 19 - - - - - - - 29.6 1007.5 0.0
19/10:30pm WNW 17 20 - - - - - - - 29.6 1007.1 0.0
19/10:00pm WNW 16 18 - - - - - - - 29.5 1007.0 0.0
19/09:30pm WNW 15 17 - - - - - - - 29.6 1006.9 0.0
19/09:00pm WNW 13 16 - - - - - - - 29.5 1006.5 0.0
19/08:30pm WNW 14 16 - - - - - - - 29.5 1005.9 0.0
19/08:00pm WNW 14 18 - - - - - - - 29.5 1005.6 0.0

Other formats

Comma delimited format used in spreadsheet applications
http://www.bom.gov.au/fwo/IDD60701/IDD60701.94135.axf

JavaScript Object Notation format (JSON) in row-major order
http://www.bom.gov.au/fwo/IDD60701/IDD60701.94135.json

Data quality

Most of these data are generated automatically and are frequently updated. Quality checks on data are not normally performed. It is possible for incorrect values to appear. Refer to information at About Latest Weather Observations and please check the disclaimer before using these data.